Latest Weather Observations for Esperance Harbour

IDW60801

Issued at 11:33 am WST Saturday 29 April 2017 (issued every 30 minutes, with the page automatically refreshed every 10 minutes)

About weather observations | Map of weather stations | Latest weather observations for WA | Other Formats
Station Details ID: 109504 Name: ESPERANCE NTC AWS Lat: -33.87 Lon: 121.90 Height: 0.0 m
Data from the previous 72 hours. | See also: Recent months for locations in Western Australia
Date/Time
WST
Temp
°C
App
Temp
°C
Dew
Point
°C
Rel
Hum
%
Delta-T
°C
Wind Press
QNH
hPa
Press
MSL
hPa
Rain since
9am
mm
Dir  Spd
km/h
Gust
km/h
Spd
kts
Gust
kts
29/11:30am 18.2 - - - - - - - - - 1024.2 1024.1 -
29/11:00am 17.7 - - - - - - - - - 1024.7 1024.6 -
29/10:30am 17.6 - - - - - - - - - 1025.0 1024.9 -
29/10:00am 17.5 - - - - - - - - - 1025.3 1025.2 -
29/09:30am 16.3 - - - - - - - - - 1025.5 1025.4 -
29/09:00am 14.1 - - - - - - - - - 1025.7 1025.6 -
29/08:30am 13.0 - - - - - - - - - 1025.8 1025.7 -
29/08:00am 12.0 - - - - - - - - - 1026.0 1025.9 -
29/07:30am 11.6 - - - - - - - - - 1026.1 1026.0 -
29/07:00am 11.2 - - - - - - - - - 1025.9 1025.8 -
29/06:30am 11.0 - - - - - - - - - 1025.9 1025.8 -
29/06:00am 12.0 - - - - - - - - - 1025.8 1025.7 -
29/05:30am 12.6 - - - - - - - - - 1025.8 1025.7 -
29/05:00am 12.6 - - - - - - - - - 1025.6 1025.5 -
29/04:30am 12.7 - - - - - - - - - 1025.6 1025.5 -
29/04:00am 13.2 - - - - - - - - - 1025.4 1025.3 -
29/03:30am 13.5 - - - - - - - - - 1025.3 1025.2 -
29/03:00am 13.6 - - - - - - - - - 1025.3 1025.2 -
29/02:30am 14.2 - - - - - - - - - 1025.3 1025.2 -
29/02:00am 14.2 - - - - - - - - - 1025.6 1025.5 -
29/01:30am 14.5 - - - - - - - - - 1025.7 1025.6 -
29/01:00am 14.5 - - - - - - - - - 1025.8 1025.7 -
29/12:30am 14.6 - - - - - - - - - 1025.7 1025.6 -
29/12:00am 14.8 - - - - - - - - - 1025.7 1025.6 -
 
Date/Time
WST
Temp
°C
App
Temp
°C
Dew
Point
°C
Rel
Hum
%
Delta-T
°C
Wind Press
QNH
hPa
Press
MSL
hPa
Rain since
9am
mm
Dir  Spd
km/h
Gust
km/h
Spd
kts
Gust
kts
28/11:30pm 15.2 - - - - - - - - - 1026.0 1025.9 -
28/11:00pm 15.4 - - - - - - - - - 1026.2 1026.1 -
28/10:30pm 15.6 - - - - - - - - - 1026.4 1026.3 -
28/10:00pm 16.5 - - - - - - - - - 1026.6 1026.5 -
28/09:30pm 16.9 - - - - - - - - - 1026.7 1026.6 -
28/09:00pm 17.9 - - - - - - - - - 1026.7 1026.6 -
28/08:30pm 18.4 - - - - - - - - - 1026.6 1026.5 -
28/08:00pm 18.5 - - - - - - - - - 1026.6 1026.5 -
28/07:30pm 19.1 - - - - - - - - - 1026.5 1026.4 -
28/07:00pm 19.2 - - - - - - - - - 1026.4 1026.3 -
28/06:30pm 19.4 - - - - - - - - - 1026.1 1026.0 -
28/06:00pm 19.5 - - - - - - - - - 1025.9 1025.8 -
28/05:30pm 19.4 - - - - - - - - - 1025.7 1025.6 -
28/05:00pm 19.5 - - - - - - - - - 1025.6 1025.5 -
28/04:30pm 19.6 - - - - - - - - - 1025.5 1025.4 -
28/04:00pm 19.7 - - - - - - - - - 1025.5 1025.4 -
28/03:30pm 19.8 - - - - - - - - - 1025.3 1025.2 -
28/03:00pm 19.8 - - - - - - - - - 1025.4 1025.3 -
28/02:30pm 20.1 - - - - - - - - - 1025.3 1025.2 -
28/02:00pm 19.8 - - - - - - - - - 1025.3 1025.2 -
28/01:30pm 19.9 - - - - - - - - - 1025.5 1025.4 -
28/01:00pm 20.1 - - - - - - - - - 1025.7 1025.6 -
28/12:30pm 20.6 - - - - - - - - - 1026.1 1026.0 -
28/12:00pm 21.1 - - - - - - - - - 1026.4 1026.3 -
28/11:30am 20.6 - - - - - - - - - 1026.9 1026.8 -
28/11:00am 21.4 - - - - - - - - - 1027.2 1027.1 -
28/10:30am 20.2 - - - - - - - - - 1027.5 1027.4 -
28/10:00am 19.2 - - - - - - - - - 1027.7 1027.6 -
28/09:30am 17.7 - - - - - - - - - 1027.9 1027.8 -
28/09:00am 16.4 - - - - - - - - - 1028.3 1028.2 -
28/08:30am 15.0 - - - - - - - - - 1028.2 1028.1 -
28/08:00am 14.2 - - - - - - - - - 1028.1 1028.0 -
28/07:30am 13.9 - - - - - - - - - 1027.9 1027.8 -
28/07:00am 13.8 - - - - - - - - - 1027.7 1027.6 -
28/06:30am 13.6 - - - - - - - - - 1027.4 1027.3 -
28/06:00am 13.3 - - - - - - - - - 1027.3 1027.2 -
28/05:30am 13.3 - - - - - - - - - 1027.0 1026.9 -
28/05:00am 13.6 - - - - - - - - - 1026.7 1026.6 -
28/04:30am 13.3 - - - - - - - - - 1026.4 1026.3 -
28/04:00am 13.7 - - - - - - - - - 1026.3 1026.2 -
28/03:30am 14.0 - - - - - - - - - 1026.0 1025.9 -
28/03:00am 14.6 - - - - - - - - - 1025.9 1025.8 -
28/02:30am 14.7 - - - - - - - - - 1025.9 1025.8 -
28/02:00am 14.8 - - - - - - - - - 1026.0 1025.9 -
28/01:30am 14.9 - - - - - - - - - 1026.0 1025.9 -
28/01:00am 15.9 - - - - - - - - - 1026.2 1026.1 -
28/12:30am 15.5 - - - - - - - - - 1026.5 1026.4 -
28/12:00am 15.8 - - - - - - - - - 1026.5 1026.4 -
 
Date/Time
WST
Temp
°C
App
Temp
°C
Dew
Point
°C
Rel
Hum
%
Delta-T
°C
Wind Press
QNH
hPa
Press
MSL
hPa
Rain since
9am
mm
Dir  Spd
km/h
Gust
km/h
Spd
kts
Gust
kts
27/11:30pm 15.9 - - - - - - - - - 1026.6 1026.5 -
27/11:00pm 16.0 - - - - - - - - - 1026.8 1026.7 -
27/10:30pm 16.6 - - - - - - - - - 1027.0 1026.9 -
27/10:00pm 16.9 - - - - - - - - - 1027.1 1027.0 -
27/09:30pm 17.2 - - - - - - - - - 1027.2 1027.1 -
27/09:00pm 17.4 - - - - - - - - - 1027.3 1027.2 -
27/08:30pm 17.9 - - - - - - - - - 1027.0 1026.9 -
27/08:00pm 18.3 - - - - - - - - - 1026.8 1026.7 -
27/07:30pm 18.7 - - - - - - - - - 1026.7 1026.6 -
27/07:00pm 18.9 - - - - - - - - - 1026.5 1026.4 -
27/06:30pm 19.1 - - - - - - - - - 1026.3 1026.2 -
27/06:00pm 19.4 - - - - - - - - - 1026.1 1026.0 -
27/05:30pm 19.3 - - - - - - - - - 1025.8 1025.7 -
27/05:00pm 19.7 - - - - - - - - - 1025.7 1025.6 -
27/04:30pm 20.1 - - - - - - - - - 1025.7 1025.6 -
27/04:00pm 19.6 - - - - - - - - - 1025.6 1025.5 -
27/03:30pm 19.8 - - - - - - - - - 1025.5 1025.4 -
27/03:00pm 19.7 - - - - - - - - - 1025.5 1025.4 -
27/02:30pm 20.2 - - - - - - - - - 1025.5 1025.4 -
27/02:00pm 20.2 - - - - - - - - - 1025.7 1025.6 -
27/01:30pm 20.3 - - - - - - - - - 1025.9 1025.8 -
27/01:00pm 19.4 - - - - - - - - - 1026.2 1026.1 -
27/12:30pm 19.9 - - - - - - - - - 1026.6 1026.5 -
27/12:00pm 19.4 - - - - - - - - - 1027.2 1027.1 -
27/11:30am 18.8 - - - - - - - - - 1027.7 1027.6 -
27/11:00am 20.1 - - - - - - - - - 1028.1 1028.0 -
27/10:30am 19.1 - - - - - - - - - 1028.5 1028.4 -
27/10:00am 17.4 - - - - - - - - - 1028.9 1028.8 -
27/09:30am 15.9 - - - - - - - - - 1029.2 1029.1 -
27/09:00am 14.4 - - - - - - - - - 1029.4 1029.3 -
27/08:30am 13.5 - - - - - - - - - 1029.5 1029.4 -
27/08:00am 13.3 - - - - - - - - - 1029.4 1029.3 -
27/07:30am 14.2 - - - - - - - - - 1029.3 1029.2 -
27/07:00am 13.1 - - - - - - - - - 1028.9 1028.8 -
27/06:30am 12.2 - - - - - - - - - 1028.9 1028.8 -
27/06:00am 12.2 - - - - - - - - - 1029.1 1029.0 -
27/05:30am 12.7 - - - - - - - - - 1028.8 1028.7 -
27/05:00am 12.5 - - - - - - - - - 1028.6 1028.5 -
27/04:30am 12.6 - - - - - - - - - 1028.5 1028.4 -
27/04:00am 13.0 - - - - - - - - - 1028.4 1028.3 -
27/03:30am 12.7 - - - - - - - - - 1028.4 1028.3 -
27/03:00am 12.8 - - - - - - - - - 1028.3 1028.2 -
27/02:30am 13.0 - - - - - - - - - 1028.4 1028.3 -
27/02:00am 13.2 - - - - - - - - - 1028.5 1028.4 -
27/01:30am 13.4 - - - - - - - - - 1028.5 1028.4 -
27/01:00am 13.7 - - - - - - - - - 1028.3 1028.2 -
27/12:30am 13.8 - - - - - - - - - 1028.3 1028.2 -
27/12:00am 13.9 - - - - - - - - - 1028.2 1028.1 -
 
Date/Time
WST
Temp
°C
App
Temp
°C
Dew
Point
°C
Rel
Hum
%
Delta-T
°C
Wind Press
QNH
hPa
Press
MSL
hPa
Rain since
9am
mm
Dir  Spd
km/h
Gust
km/h
Spd
kts
Gust
kts
26/11:30pm 14.3 - - - - - - - - - 1028.1 1028.0 -
26/11:00pm 14.7 - - - - - - - - - 1027.9 1027.8 -
26/10:30pm 15.2 - - - - - - - - - 1028.2 1028.1 -
26/10:00pm 15.8 - - - - - - - - - 1028.3 1028.2 -
26/09:30pm 15.8 - - - - - - - - - 1028.2 1028.1 -
26/09:00pm 16.3 - - - - - - - - - 1028.1 1028.0 -
26/08:30pm 18.1 - - - - - - - - - 1028.1 1028.0 -
26/08:00pm 17.8 - - - - - - - - - 1027.9 1027.8 -
26/07:30pm 17.7 - - - - - - - - - 1027.7 1027.6 -
26/07:00pm 17.8 - - - - - - - - - 1027.8 1027.7 -
26/06:30pm 17.9 - - - - - - - - - 1027.5 1027.4 -
26/06:00pm 18.0 - - - - - - - - - 1027.2 1027.1 -
26/05:30pm 18.1 - - - - - - - - - 1027.0 1026.9 -
26/05:00pm 18.3 - - - - - - - - - 1026.8 1026.7 -
26/04:30pm 18.4 - - - - - - - - - 1026.8 1026.7 -
26/04:00pm 18.6 - - - - - - - - - 1026.7 1026.6 -
26/03:30pm 19.2 - - - - - - - - - 1026.9 1026.8 -
26/03:00pm 19.4 - - - - - - - - - 1026.8 1026.7 -
26/02:30pm 19.1 - - - - - - - - - 1026.8 1026.7 -
26/02:00pm 19.2 - - - - - - - - - 1026.7 1026.6 -
26/01:30pm 18.9 - - - - - - - - - 1026.6 1026.5 -
26/01:00pm 18.4 - - - - - - - - - 1026.8 1026.7 -
26/12:30pm 18.5 - - - - - - - - - 1027.2 1027.1 -
26/12:00pm 18.6 - - - - - - - - - 1027.5 1027.4 -

Other Formats:

Comma delimited format used in spreadsheet applications
http://www.bom.gov.au/fwo/IDW60801/IDW60801.95648.axf

JavaScript Object Notation format (JSON) in row-major order
http://www.bom.gov.au/fwo/IDW60801/IDW60801.95648.json